sensor_id;sensor_type;location;lat;lon;timestamp;pressure;altitude;pressure_sealevel;temperature;humidity
59493;BME280;45497;43.996;22.876;2023-06-10T00:01:03;100692.31;;;20.61;61.43
59493;BME280;45497;43.996;22.876;2023-06-10T00:03:29;100678.75;;;20.56;61.67
59493;BME280;45497;43.996;22.876;2023-06-10T00:05:55;100677.56;;;20.52;61.76
59493;BME280;45497;43.996;22.876;2023-06-10T00:08:20;100678.97;;;20.67;61.42
59493;BME280;45497;43.996;22.876;2023-06-10T00:10:46;100679.69;;;20.62;61.42
59493;BME280;45497;43.996;22.876;2023-06-10T00:13:11;100671.38;;;20.52;61.68
59493;BME280;45497;43.996;22.876;2023-06-10T00:15:37;100674.97;;;20.57;61.84
59493;BME280;45497;43.996;22.876;2023-06-10T00:18:03;100683.78;;;20.65;61.41
59493;BME280;45497;43.996;22.876;2023-06-10T00:20:30;100687.28;;;20.65;61.34
59493;BME280;45497;43.996;22.876;2023-06-10T00:22:58;100681.78;;;20.48;62.02
59493;BME280;45497;43.996;22.876;2023-06-10T00:25:24;100683.44;;;20.49;61.75
59493;BME280;45497;43.996;22.876;2023-06-10T00:27:51;100677.78;;;20.51;61.90
59493;BME280;45497;43.996;22.876;2023-06-10T00:30:16;100677.25;;;20.37;62.50
59493;BME280;45497;43.996;22.876;2023-06-10T00:32:42;100689.88;;;20.36;62.63
59493;BME280;45497;43.996;22.876;2023-06-10T00:35:07;100686.47;;;20.29;62.78
59493;BME280;45497;43.996;22.876;2023-06-10T00:37:33;100680.75;;;20.25;62.83
59493;BME280;45497;43.996;22.876;2023-06-10T00:40:02;100688.00;;;20.25;62.88
59493;BME280;45497;43.996;22.876;2023-06-10T00:42:27;100691.53;;;20.37;62.56
59493;BME280;45497;43.996;22.876;2023-06-10T00:44:54;100681.59;;;20.26;62.92
59493;BME280;45497;43.996;22.876;2023-06-10T00:47:20;100680.06;;;20.30;62.82
59493;BME280;45497;43.996;22.876;2023-06-10T00:49:46;100686.94;;;20.38;62.57
59493;BME280;45497;43.996;22.876;2023-06-10T00:52:14;100681.22;;;20.46;62.27
59493;BME280;45497;43.996;22.876;2023-06-10T00:54:40;100684.50;;;20.48;62.11
59493;BME280;45497;43.996;22.876;2023-06-10T00:57:06;100690.81;;;20.66;61.51
59493;BME280;45497;43.996;22.876;2023-06-10T00:59:32;100685.78;;;20.69;61.20
59493;BME280;45497;43.996;22.876;2023-06-10T01:01:57;100685.91;;;20.62;61.41
59493;BME280;45497;43.996;22.876;2023-06-10T01:04:23;100685.66;;;20.64;61.44
59493;BME280;45497;43.996;22.876;2023-06-10T01:09:45;100681.19;;;20.70;61.07
59493;BME280;45497;43.996;22.876;2023-06-10T01:13:24;100679.31;;;20.70;61.16
59493;BME280;45497;43.996;22.876;2023-06-10T01:15:18;100690.94;;;20.71;61.07
59493;BME280;45497;43.996;22.876;2023-06-10T01:17:55;100689.28;;;20.70;61.18
59493;BME280;45497;43.996;22.876;2023-06-10T01:20:20;100675.09;;;20.74;60.84
59493;BME280;45497;43.996;22.876;2023-06-10T01:22:46;100685.25;;;20.84;60.57
59493;BME280;45497;43.996;22.876;2023-06-10T01:25:13;100684.56;;;20.77;60.63
59493;BME280;45497;43.996;22.876;2023-06-10T01:27:40;100686.13;;;20.73;60.69
59493;BME280;45497;43.996;22.876;2023-06-10T01:30:11;100680.84;;;20.66;61.13
59493;BME280;45497;43.996;22.876;2023-06-10T01:32:48;100673.13;;;20.70;60.64
59493;BME280;45497;43.996;22.876;2023-06-10T01:35:15;100671.22;;;20.70;60.69
59493;BME280;45497;43.996;22.876;2023-06-10T01:37:43;100670.19;;;20.71;60.42
59493;BME280;45497;43.996;22.876;2023-06-10T01:40:10;100670.06;;;20.54;61.04
59493;BME280;45497;43.996;22.876;2023-06-10T01:42:37;100677.56;;;20.52;61.27
59493;BME280;45497;43.996;22.876;2023-06-10T01:45:03;100680.28;;;20.40;61.79
59493;BME280;45497;43.996;22.876;2023-06-10T01:47:28;100674.78;;;20.23;62.24
59493;BME280;45497;43.996;22.876;2023-06-10T01:49:54;100680.06;;;20.30;61.89
59493;BME280;45497;43.996;22.876;2023-06-10T01:52:20;100662.75;;;20.26;61.95
59493;BME280;45497;43.996;22.876;2023-06-10T01:54:45;100669.41;;;20.23;62.05
59493;BME280;45497;43.996;22.876;2023-06-10T01:57:11;100668.25;;;20.31;61.84
59493;BME280;45497;43.996;22.876;2023-06-10T01:59:39;100665.19;;;20.39;61.66
59493;BME280;45497;43.996;22.876;2023-06-10T02:02:05;100661.91;;;20.37;61.49
59493;BME280;45497;43.996;22.876;2023-06-10T02:04:30;100669.97;;;20.37;61.62
59493;BME280;45497;43.996;22.876;2023-06-10T02:06:56;100668.00;;;20.33;61.64
59493;BME280;45497;43.996;22.876;2023-06-10T02:09:22;100669.88;;;20.32;61.36
59493;BME280;45497;43.996;22.876;2023-06-10T02:11:48;100671.28;;;20.23;61.75
59493;BME280;45497;43.996;22.876;2023-06-10T02:14:14;100683.31;;;20.32;61.55
59493;BME280;45497;43.996;22.876;2023-06-10T02:16:40;100674.56;;;20.13;61.94
59493;BME280;45497;43.996;22.876;2023-06-10T02:19:06;100676.78;;;20.16;62.08
59493;BME280;45497;43.996;22.876;2023-06-10T02:21:32;100679.97;;;20.13;61.80
59493;BME280;45497;43.996;22.876;2023-06-10T02:23:59;100684.16;;;20.21;61.47
59493;BME280;45497;43.996;22.876;2023-06-10T02:26:25;100676.91;;;20.21;61.31
59493;BME280;45497;43.996;22.876;2023-06-10T02:28:51;100689.19;;;20.29;60.90
59493;BME280;45497;43.996;22.876;2023-06-10T02:31:17;100692.94;;;20.28;60.84
59493;BME280;45497;43.996;22.876;2023-06-10T02:33:43;100693.06;;;20.21;60.96
59493;BME280;45497;43.996;22.876;2023-06-10T02:36:10;100695.50;;;20.23;60.70
59493;BME280;45497;43.996;22.876;2023-06-10T02:38:41;100705.81;;;20.14;60.87
59493;BME280;45497;43.996;22.876;2023-06-10T02:41:07;100700.19;;;20.16;60.81
59493;BME280;45497;43.996;22.876;2023-06-10T02:43:33;100712.34;;;20.18;60.89
59493;BME280;45497;43.996;22.876;2023-06-10T02:45:58;100708.25;;;20.16;60.99
59493;BME280;45497;43.996;22.876;2023-06-10T02:48:24;100698.88;;;20.18;61.05
59493;BME280;45497;43.996;22.876;2023-06-10T02:50:50;100697.16;;;20.12;61.14
59493;BME280;45497;43.996;22.876;2023-06-10T02:53:16;100697.97;;;20.13;61.26
59493;BME280;45497;43.996;22.876;2023-06-10T02:55:42;100690.47;;;20.15;61.04
59493;BME280;45497;43.996;22.876;2023-06-10T02:58:08;100698.09;;;20.18;61.05
59493;BME280;45497;43.996;22.876;2023-06-10T03:00:33;100684.03;;;20.16;61.05
59493;BME280;45497;43.996;22.876;2023-06-10T03:02:59;100684.75;;;20.23;60.83
59493;BME280;45497;43.996;22.876;2023-06-10T03:05:29;100692.56;;;20.36;60.55
59493;BME280;45497;43.996;22.876;2023-06-10T03:07:54;100690.72;;;20.37;60.24
59493;BME280;45497;43.996;22.876;2023-06-10T03:10:20;100680.06;;;20.42;60.05
59493;BME280;45497;43.996;22.876;2023-06-10T03:12:45;100694.22;;;20.49;59.96
59493;BME280;45497;43.996;22.876;2023-06-10T03:15:11;100697.25;;;20.53;59.77
59493;BME280;45497;43.996;22.876;2023-06-10T03:17:36;100688.84;;;20.49;59.86
59493;BME280;45497;43.996;22.876;2023-06-10T03:20:02;100690.09;;;20.47;59.83
59493;BME280;45497;43.996;22.876;2023-06-10T03:22:30;100690.22;;;20.52;59.75
59493;BME280;45497;43.996;22.876;2023-06-10T03:24:56;100696.91;;;20.61;59.57
59493;BME280;45497;43.996;22.876;2023-06-10T03:27:22;100703.44;;;20.65;59.56
59493;BME280;45497;43.996;22.876;2023-06-10T03:29:48;100710.13;;;20.74;59.45
59493;BME280;45497;43.996;22.876;2023-06-10T03:32:13;100699.81;;;20.71;59.48
59493;BME280;45497;43.996;22.876;2023-06-10T03:34:40;100696.91;;;20.73;59.58
59493;BME280;45497;43.996;22.876;2023-06-10T03:37:06;100689.00;;;20.83;59.56
59493;BME280;45497;43.996;22.876;2023-06-10T03:39:32;100697.69;;;20.85;59.36
59493;BME280;45497;43.996;22.876;2023-06-10T03:41:57;100694.25;;;20.90;59.24
59493;BME280;45497;43.996;22.876;2023-06-10T03:44:24;100703.84;;;20.97;59.08
59493;BME280;45497;43.996;22.876;2023-06-10T03:46:51;100692.69;;;21.06;59.07
59493;BME280;45497;43.996;22.876;2023-06-10T03:49:17;100694.31;;;21.07;59.06
59493;BME280;45497;43.996;22.876;2023-06-10T03:51:43;100692.69;;;21.06;59.05
59493;BME280;45497;43.996;22.876;2023-06-10T03:54:08;100699.13;;;21.05;59.46
59493;BME280;45497;43.996;22.876;2023-06-10T03:56:34;100693.59;;;21.11;59.35
59493;BME280;45497;43.996;22.876;2023-06-10T03:59:00;100696.44;;;21.05;59.49
59493;BME280;45497;43.996;22.876;2023-06-10T04:01:26;100701.81;;;21.05;59.62
59493;BME280;45497;43.996;22.876;2023-06-10T04:03:51;100699.53;;;20.96;59.70
59493;BME280;45497;43.996;22.876;2023-06-10T04:06:19;100701.75;;;20.99;59.69
59493;BME280;45497;43.996;22.876;2023-06-10T04:08:45;100697.41;;;20.98;59.15
59493;BME280;45497;43.996;22.876;2023-06-10T04:11:10;100705.38;;;20.93;59.30
59493;BME280;45497;43.996;22.876;2023-06-10T04:13:36;100707.50;;;20.91;59.19
59493;BME280;45497;43.996;22.876;2023-06-10T04:16:02;100705.78;;;20.85;59.17
59493;BME280;45497;43.996;22.876;2023-06-10T04:18:28;100703.78;;;20.80;59.35
59493;BME280;45497;43.996;22.876;2023-06-10T04:20:54;100706.81;;;20.84;59.50
59493;BME280;45497;43.996;22.876;2023-06-10T04:23:19;100699.31;;;20.86;59.36
59493;BME280;45497;43.996;22.876;2023-06-10T04:25:44;100702.28;;;20.61;60.12
59493;BME280;45497;43.996;22.876;2023-06-10T04:28:10;100707.22;;;20.64;60.30
59493;BME280;45497;43.996;22.876;2023-06-10T04:30:35;100709.41;;;20.43;61.23
59493;BME280;45497;43.996;22.876;2023-06-10T04:33:01;100711.06;;;20.68;60.77
59493;BME280;45497;43.996;22.876;2023-06-10T04:35:26;100709.03;;;20.87;60.48
59493;BME280;45497;43.996;22.876;2023-06-10T04:37:53;100705.53;;;21.15;59.77
59493;BME280;45497;43.996;22.876;2023-06-10T04:40:19;100707.94;;;21.29;59.31
59493;BME280;45497;43.996;22.876;2023-06-10T04:42:44;100701.91;;;21.38;58.99
59493;BME280;45497;43.996;22.876;2023-06-10T04:45:11;100701.56;;;21.64;58.71
59493;BME280;45497;43.996;22.876;2023-06-10T04:47:36;100697.09;;;21.86;57.88
59493;BME280;45497;43.996;22.876;2023-06-10T04:50:02;100699.38;;;21.94;57.57
59493;BME280;45497;43.996;22.876;2023-06-10T04:52:29;100690.38;;;21.89;57.76
59493;BME280;45497;43.996;22.876;2023-06-10T04:54:55;100700.88;;;22.02;57.60
59493;BME280;45497;43.996;22.876;2023-06-10T04:57:21;100700.44;;;22.10;57.36
59493;BME280;45497;43.996;22.876;2023-06-10T04:59:47;100700.66;;;22.26;57.16
59493;BME280;45497;43.996;22.876;2023-06-10T05:02:12;100703.53;;;22.19;57.02
59493;BME280;45497;43.996;22.876;2023-06-10T05:04:38;100703.16;;;21.93;57.88
59493;BME280;45497;43.996;22.876;2023-06-10T05:07:04;100711.06;;;22.00;57.72
59493;BME280;45497;43.996;22.876;2023-06-10T05:09:30;100703.66;;;21.73;57.82
59493;BME280;45497;43.996;22.876;2023-06-10T05:11:55;100702.47;;;22.03;57.60
59493;BME280;45497;43.996;22.876;2023-06-10T05:14:21;100695.84;;;22.11;56.91
59493;BME280;45497;43.996;22.876;2023-06-10T05:16:48;100703.56;;;22.02;57.25
59493;BME280;45497;43.996;22.876;2023-06-10T05:19:13;100703.69;;;22.12;57.33
59493;BME280;45497;43.996;22.876;2023-06-10T05:21:39;100707.47;;;22.28;56.87
59493;BME280;45497;43.996;22.876;2023-06-10T05:24:04;100705.31;;;22.69;56.52
59493;BME280;45497;43.996;22.876;2023-06-10T05:26:30;100702.50;;;23.03;55.80
59493;BME280;45497;43.996;22.876;2023-06-10T05:28:58;100699.94;;;23.41;54.95
59493;BME280;45497;43.996;22.876;2023-06-10T05:31:24;100703.81;;;23.50;54.46
59493;BME280;45497;43.996;22.876;2023-06-10T05:33:49;100703.13;;;23.65;53.92
59493;BME280;45497;43.996;22.876;2023-06-10T05:36:14;100705.63;;;23.77;54.22
59493;BME280;45497;43.996;22.876;2023-06-10T05:38:40;100699.28;;;23.88;53.72
59493;BME280;45497;43.996;22.876;2023-06-10T05:41:06;100693.13;;;23.98;53.44
59493;BME280;45497;43.996;22.876;2023-06-10T05:43:31;100697.50;;;24.09;53.14
59493;BME280;45497;43.996;22.876;2023-06-10T05:45:57;100695.69;;;24.15;52.96
59493;BME280;45497;43.996;22.876;2023-06-10T05:48:22;100693.13;;;24.40;52.73
59493;BME280;45497;43.996;22.876;2023-06-10T05:50:48;100680.03;;;24.75;52.06
59493;BME280;45497;43.996;22.876;2023-06-10T05:53:16;100684.44;;;24.96;51.52
59493;BME280;45497;43.996;22.876;2023-06-10T05:55:43;100683.88;;;25.05;51.05
59493;BME280;45497;43.996;22.876;2023-06-10T05:58:10;100683.09;;;25.09;50.55
59493;BME280;45497;43.996;22.876;2023-06-10T06:00:38;100684.69;;;24.95;50.19
59493;BME280;45497;43.996;22.876;2023-06-10T06:03:03;100686.03;;;24.87;50.54
59493;BME280;45497;43.996;22.876;2023-06-10T06:05:28;100686.63;;;25.15;50.45
59493;BME280;45497;43.996;22.876;2023-06-10T06:08:06;100686.88;;;24.98;50.09
59493;BME280;45497;43.996;22.876;2023-06-10T06:10:32;100692.94;;;25.26;50.18
59493;BME280;45497;43.996;22.876;2023-06-10T06:12:58;100679.38;;;25.62;49.67
59493;BME280;45497;43.996;22.876;2023-06-10T06:15:24;100680.47;;;25.86;49.11
59493;BME280;45497;43.996;22.876;2023-06-10T06:17:49;100679.94;;;25.53;48.45
59493;BME280;45497;43.996;22.876;2023-06-10T06:20:20;100680.75;;;25.44;48.92
59493;BME280;45497;43.996;22.876;2023-06-10T06:22:46;100685.63;;;25.72;49.07
59493;BME280;45497;43.996;22.876;2023-06-10T06:25:12;100674.50;;;26.05;48.54
59493;BME280;45497;43.996;22.876;2023-06-10T06:27:37;100681.03;;;25.99;48.42
59493;BME280;45497;43.996;22.876;2023-06-10T06:30:03;100683.69;;;26.14;47.88
59493;BME280;45497;43.996;22.876;2023-06-10T06:32:29;100677.78;;;25.97;47.21
59493;BME280;45497;43.996;22.876;2023-06-10T06:34:54;100672.06;;;25.98;47.59
59493;BME280;45497;43.996;22.876;2023-06-10T06:37:21;100669.28;;;26.29;47.39
59493;BME280;45497;43.996;22.876;2023-06-10T06:39:48;100676.34;;;26.30;46.80
59493;BME280;45497;43.996;22.876;2023-06-10T06:42:13;100674.50;;;26.05;47.04
59493;BME280;45497;43.996;22.876;2023-06-10T06:44:39;100668.28;;;25.79;47.12
59493;BME280;45497;43.996;22.876;2023-06-10T06:47:05;100671.25;;;25.82;47.52
59493;BME280;45497;43.996;22.876;2023-06-10T06:49:30;100655.47;;;26.00;47.34
59493;BME280;45497;43.996;22.876;2023-06-10T06:51:56;100664.47;;;26.00;47.15
59493;BME280;45497;43.996;22.876;2023-06-10T06:54:21;100661.44;;;26.17;46.65
59493;BME280;45497;43.996;22.876;2023-06-10T06:56:46;100660.56;;;26.37;46.59
59493;BME280;45497;43.996;22.876;2023-06-10T06:59:12;100657.53;;;26.44;46.44
59493;BME280;45497;43.996;22.876;2023-06-10T07:01:39;100664.09;;;26.32;45.58
59493;BME280;45497;43.996;22.876;2023-06-10T07:04:05;100662.22;;;26.23;46.02
59493;BME280;45497;43.996;22.876;2023-06-10T07:06:30;100661.97;;;26.14;45.80
59493;BME280;45497;43.996;22.876;2023-06-10T07:08:55;100667.19;;;26.00;45.93
59493;BME280;45497;43.996;22.876;2023-06-10T07:11:21;100660.38;;;26.03;44.71
59493;BME280;45497;43.996;22.876;2023-06-10T07:13:47;100646.44;;;26.25;45.20
59493;BME280;45497;43.996;22.876;2023-06-10T07:16:12;100657.22;;;26.61;44.44
59493;BME280;45497;43.996;22.876;2023-06-10T07:18:38;100654.16;;;26.78;44.11
59493;BME280;45497;43.996;22.876;2023-06-10T07:21:03;100650.88;;;27.20;44.50
59493;BME280;45497;43.996;22.876;2023-06-10T07:23:29;100651.75;;;27.55;44.41
59493;BME280;45497;43.996;22.876;2023-06-10T07:25:55;100651.94;;;27.64;44.33
59493;BME280;45497;43.996;22.876;2023-06-10T07:28:20;100643.75;;;27.64;43.80
59493;BME280;45497;43.996;22.876;2023-06-10T07:30:46;100655.28;;;27.56;42.72
59493;BME280;45497;43.996;22.876;2023-06-10T07:33:11;100651.38;;;27.33;43.93
59493;BME280;45497;43.996;22.876;2023-06-10T07:35:37;100649.81;;;27.61;43.42
59493;BME280;45497;43.996;22.876;2023-06-10T07:38:02;100643.06;;;27.82;43.60
59493;BME280;45497;43.996;22.876;2023-06-10T07:40:28;100639.16;;;27.94;42.81
59493;BME280;45497;43.996;22.876;2023-06-10T07:42:55;100639.84;;;28.05;42.14
59493;BME280;45497;43.996;22.876;2023-06-10T07:45:20;100654.03;;;27.72;42.32
59493;BME280;45497;43.996;22.876;2023-06-10T07:47:46;100643.28;;;28.15;41.79
59493;BME280;45497;43.996;22.876;2023-06-10T07:50:11;100641.88;;;28.42;41.06
59493;BME280;45497;43.996;22.876;2023-06-10T07:52:37;100635.84;;;28.69;40.25
59493;BME280;45497;43.996;22.876;2023-06-10T07:55:04;100626.56;;;28.70;40.82
59493;BME280;45497;43.996;22.876;2023-06-10T07:57:29;100636.28;;;28.76;40.15
59493;BME280;45497;43.996;22.876;2023-06-10T07:59:56;100637.38;;;28.75;39.00
59493;BME280;45497;43.996;22.876;2023-06-10T08:02:24;100632.00;;;28.70;39.71
59493;BME280;45497;43.996;22.876;2023-06-10T08:04:50;100636.84;;;28.73;39.45
59493;BME280;45497;43.996;22.876;2023-06-10T08:07:15;100633.41;;;28.87;38.96
59493;BME280;45497;43.996;22.876;2023-06-10T08:09:43;100632.31;;;28.69;39.00
59493;BME280;45497;43.996;22.876;2023-06-10T08:12:08;100640.31;;;28.60;38.44
59493;BME280;45497;43.996;22.876;2023-06-10T08:14:34;100633.91;;;28.70;38.37
59493;BME280;45497;43.996;22.876;2023-06-10T08:16:59;100629.88;;;28.67;38.22
59493;BME280;45497;43.996;22.876;2023-06-10T08:19:25;100616.06;;;28.58;38.55
59493;BME280;45497;43.996;22.876;2023-06-10T08:21:50;100616.34;;;28.57;38.37
59493;BME280;45497;43.996;22.876;2023-06-10T08:24:16;100622.72;;;28.90;37.69
59493;BME280;45497;43.996;22.876;2023-06-10T08:26:43;100617.91;;;29.20;38.03
59493;BME280;45497;43.996;22.876;2023-06-10T08:29:12;100611.91;;;29.37;39.03
59493;BME280;45497;43.996;22.876;2023-06-10T08:31:41;100611.25;;;29.59;38.13
59493;BME280;45497;43.996;22.876;2023-06-10T08:34:06;100611.81;;;29.75;37.41
59493;BME280;45497;43.996;22.876;2023-06-10T08:36:32;100600.50;;;29.96;37.11
59493;BME280;45497;43.996;22.876;2023-06-10T08:38:57;100611.25;;;30.20;36.91
59493;BME280;45497;43.996;22.876;2023-06-10T08:41:25;100601.09;;;30.34;36.56
59493;BME280;45497;43.996;22.876;2023-06-10T08:44:09;100603.72;;;30.39;36.53
59493;BME280;45497;43.996;22.876;2023-06-10T08:46:36;100603.94;;;30.29;36.42
59493;BME280;45497;43.996;22.876;2023-06-10T08:49:06;100611.44;;;30.37;35.95
59493;BME280;45497;43.996;22.876;2023-06-10T08:51:35;100609.41;;;30.29;36.11
59493;BME280;45497;43.996;22.876;2023-06-10T08:54:17;100605.75;;;30.34;36.00
59493;BME280;45497;43.996;22.876;2023-06-10T08:56:49;100605.00;;;30.69;35.54
59493;BME280;45497;43.996;22.876;2023-06-10T08:59:15;100602.09;;;30.88;35.64
59493;BME280;45497;43.996;22.876;2023-06-10T09:01:42;100605.56;;;30.80;35.50
59493;BME280;45497;43.996;22.876;2023-06-10T09:04:08;100598.03;;;30.86;35.15
59493;BME280;45497;43.996;22.876;2023-06-10T09:06:34;100593.22;;;30.83;35.17
59493;BME280;45497;43.996;22.876;2023-06-10T09:09:01;100600.38;;;30.93;35.21
59493;BME280;45497;43.996;22.876;2023-06-10T09:11:28;100588.13;;;31.13;35.00
59493;BME280;45497;43.996;22.876;2023-06-10T09:13:53;100593.28;;;31.14;34.97
59493;BME280;45497;43.996;22.876;2023-06-10T09:16:19;100583.84;;;30.98;34.65
59493;BME280;45497;43.996;22.876;2023-06-10T09:18:44;100585.69;;;31.11;34.67
59493;BME280;45497;43.996;22.876;2023-06-10T09:21:10;100584.97;;;31.19;34.08
59493;BME280;45497;43.996;22.876;2023-06-10T09:23:37;100582.47;;;31.32;34.40
59493;BME280;45497;43.996;22.876;2023-06-10T09:26:02;100577.78;;;31.32;34.29
59493;BME280;45497;43.996;22.876;2023-06-10T09:31:17;100567.50;;;31.38;33.66
59493;BME280;45497;43.996;22.876;2023-06-10T09:33:44;100553.13;;;31.32;33.70
59493;BME280;45497;43.996;22.876;2023-06-10T09:36:10;100563.53;;;31.44;33.32
59493;BME280;45497;43.996;22.876;2023-06-10T09:38:36;100548.69;;;31.45;33.38
59493;BME280;45497;43.996;22.876;2023-06-10T09:41:03;100555.03;;;31.54;33.27
59493;BME280;45497;43.996;22.876;2023-06-10T09:43:41;100550.72;;;31.62;33.23
59493;BME280;45497;43.996;22.876;2023-06-10T09:46:07;100556.22;;;31.71;32.64
59493;BME280;45497;43.996;22.876;2023-06-10T09:48:41;100553.16;;;31.63;32.63
59493;BME280;45497;43.996;22.876;2023-06-10T09:51:12;100550.25;;;31.69;32.48
59493;BME280;45497;43.996;22.876;2023-06-10T09:53:38;100551.25;;;31.73;32.31
59493;BME280;45497;43.996;22.876;2023-06-10T09:56:04;100540.28;;;31.73;32.22
59493;BME280;45497;43.996;22.876;2023-06-10T09:58:36;100548.50;;;31.73;31.72
59493;BME280;45497;43.996;22.876;2023-06-10T10:01:09;100542.66;;;31.66;31.33
59493;BME280;45497;43.996;22.876;2023-06-10T10:06:11;100528.34;;;31.69;31.87
59493;BME280;45497;43.996;22.876;2023-06-10T10:08:36;100530.00;;;31.78;31.77
59493;BME280;45497;43.996;22.876;2023-06-10T10:11:03;100528.69;;;31.76;30.86
59493;BME280;45497;43.996;22.876;2023-06-10T10:13:29;100524.19;;;31.80;31.26
59493;BME280;45497;43.996;22.876;2023-06-10T10:16:01;100513.72;;;31.91;30.90
59493;BME280;45497;43.996;22.876;2023-06-10T10:18:30;100527.09;;;31.83;30.77
59493;BME280;45497;43.996;22.876;2023-06-10T10:20:58;100522.75;;;31.82;30.35
59493;BME280;45497;43.996;22.876;2023-06-10T10:23:32;100517.41;;;31.77;30.71
59493;BME280;45497;43.996;22.876;2023-06-10T10:26:00;100514.78;;;31.63;30.66
59493;BME280;45497;43.996;22.876;2023-06-10T10:28:36;100512.88;;;31.64;30.37
59493;BME280;45497;43.996;22.876;2023-06-10T10:31:08;100506.81;;;31.93;30.30
59493;BME280;45497;43.996;22.876;2023-06-10T10:33:49;100517.53;;;32.04;30.37
59493;BME280;45497;43.996;22.876;2023-06-10T10:36:18;100517.63;;;31.98;31.17
59493;BME280;45497;43.996;22.876;2023-06-10T10:38:45;100511.50;;;31.93;30.80
59493;BME280;45497;43.996;22.876;2023-06-10T10:41:13;100506.78;;;31.85;30.63
59493;BME280;45497;43.996;22.876;2023-06-10T10:43:40;100506.34;;;31.91;30.36
59493;BME280;45497;43.996;22.876;2023-06-10T10:46:12;100494.72;;;31.86;30.71
59493;BME280;45497;43.996;22.876;2023-06-10T10:48:38;100502.78;;;31.99;30.48
59493;BME280;45497;43.996;22.876;2023-06-10T10:51:04;100491.19;;;32.03;30.60
59493;BME280;45497;43.996;22.876;2023-06-10T10:53:30;100500.03;;;31.99;29.54
59493;BME280;45497;43.996;22.876;2023-06-10T10:56:06;100498.81;;;32.14;29.21
59493;BME280;45497;43.996;22.876;2023-06-10T10:58:33;100490.28;;;32.33;29.12
59493;BME280;45497;43.996;22.876;2023-06-10T11:00:58;100482.88;;;32.60;29.22
59493;BME280;45497;43.996;22.876;2023-06-10T11:03:28;100483.03;;;32.72;29.09
59493;BME280;45497;43.996;22.876;2023-06-10T11:05:57;100490.78;;;32.62;29.77
59493;BME280;45497;43.996;22.876;2023-06-10T11:10:54;100478.00;;;32.57;29.61
59493;BME280;45497;43.996;22.876;2023-06-10T11:13:21;100475.91;;;32.36;29.95
59493;BME280;45497;43.996;22.876;2023-06-10T11:15:49;100474.78;;;32.37;30.73
59493;BME280;45497;43.996;22.876;2023-06-10T11:18:22;100470.59;;;32.40;30.53
59493;BME280;45497;43.996;22.876;2023-06-10T11:31:31;100462.34;;;32.57;29.65
59493;BME280;45497;43.996;22.876;2023-06-10T11:34:02;100469.94;;;32.69;30.01
59493;BME280;45497;43.996;22.876;2023-06-10T11:36:29;100469.13;;;32.86;29.68
59493;BME280;45497;43.996;22.876;2023-06-10T11:38:59;100457.81;;;32.79;29.67
59493;BME280;45497;43.996;22.876;2023-06-10T11:41:26;100450.06;;;32.81;29.43
59493;BME280;45497;43.996;22.876;2023-06-10T11:43:54;100454.56;;;32.77;29.46
59493;BME280;45497;43.996;22.876;2023-06-10T11:46:24;100444.25;;;32.83;29.27
59493;BME280;45497;43.996;22.876;2023-06-10T11:48:54;100444.19;;;32.91;29.09
59493;BME280;45497;43.996;22.876;2023-06-10T11:51:20;100435.47;;;32.98;29.30
59493;BME280;45497;43.996;22.876;2023-06-10T11:53:49;100435.03;;;32.87;29.60
59493;BME280;45497;43.996;22.876;2023-06-10T11:56:26;100438.88;;;32.95;29.85
59493;BME280;45497;43.996;22.876;2023-06-10T11:58:53;100434.34;;;32.99;29.55
59493;BME280;45497;43.996;22.876;2023-06-10T12:01:24;100434.97;;;33.05;29.48
59493;BME280;45497;43.996;22.876;2023-06-10T12:04:04;100434.34;;;32.99;29.27
59493;BME280;45497;43.996;22.876;2023-06-10T12:06:44;100422.97;;;33.09;29.34
59493;BME280;45497;43.996;22.876;2023-06-10T12:11:49;100420.97;;;32.89;29.35
59493;BME280;45497;43.996;22.876;2023-06-10T12:14:15;100419.94;;;33.02;29.58
59493;BME280;45497;43.996;22.876;2023-06-10T12:16:48;100409.44;;;33.13;29.57
59493;BME280;45497;43.996;22.876;2023-06-10T12:19:14;100419.66;;;32.95;29.12
59493;BME280;45497;43.996;22.876;2023-06-10T12:21:39;100416.34;;;32.72;29.30
59493;BME280;45497;43.996;22.876;2023-06-10T12:24:07;100409.72;;;32.73;29.48
59493;BME280;45497;43.996;22.876;2023-06-10T12:26:35;100405.69;;;32.70;29.68
59493;BME280;45497;43.996;22.876;2023-06-10T12:29:17;100404.91;;;32.61;29.94
59493;BME280;45497;43.996;22.876;2023-06-10T12:32:02;100406.34;;;32.58;29.47
59493;BME280;45497;43.996;22.876;2023-06-10T12:34:35;100397.13;;;32.72;29.53
59493;BME280;45497;43.996;22.876;2023-06-10T12:37:02;100404.25;;;32.64;29.65
59493;BME280;45497;43.996;22.876;2023-06-10T12:39:32;100391.81;;;32.67;29.59
59493;BME280;45497;43.996;22.876;2023-06-10T12:41:58;100392.44;;;32.72;29.69
59493;BME280;45497;43.996;22.876;2023-06-10T12:44:31;100386.94;;;32.72;30.05
59493;BME280;45497;43.996;22.876;2023-06-10T12:46:57;100396.47;;;32.75;29.87
59493;BME280;45497;43.996;22.876;2023-06-10T12:49:23;100395.66;;;32.74;29.52
59493;BME280;45497;43.996;22.876;2023-06-10T12:51:48;100389.53;;;32.69;29.53
59493;BME280;45497;43.996;22.876;2023-06-10T12:54:14;100390.16;;;32.74;29.91
59493;BME280;45497;43.996;22.876;2023-06-10T12:56:40;100383.03;;;32.82;29.82
59493;BME280;45497;43.996;22.876;2023-06-10T12:59:05;100393.69;;;32.84;29.55
59493;BME280;45497;43.996;22.876;2023-06-10T13:01:31;100393.88;;;32.70;29.43
59493;BME280;45497;43.996;22.876;2023-06-10T13:03:58;100396.81;;;32.47;29.43